Time;durP1;ratioP1;P1;durP2;ratioP2;P2;SDS_P1;SDS_P2;PMS_P1;PMS_P2;Temp;Humidity;BMP_temperature;BMP_pressure;BME280_temperature;BME280_humidity;BME280_pressure;Samples;Min_cycle;Max_cycle;Signal;HPM_P1;HPM_P2
2021/12/18 00:02:23;;;;;;;51.25;35.50;;;7.70;89.30;;;;;;5005658;28;20029;-76
2021/12/18 00:04:49;;;;;;;54.10;36.72;;;7.60;89.10;;;;;;5011581;28;20054;-77
2021/12/18 00:07:15;;;;;;;57.35;37.25;;;7.60;88.90;;;;;;5011308;28;20043;-75
2021/12/18 00:09:41;;;;;;;55.10;37.38;;;7.60;88.60;;;;;;5012024;28;20022;-74
2021/12/18 00:12:09;;;;;;;56.92;37.40;;;7.60;88.40;;;;;;5010179;28;20037;-75
2021/12/18 00:14:35;;;;;;;53.75;36.20;;;7.60;88.30;;;;;;5013020;28;20031;-76
2021/12/18 00:17:02;;;;;;;56.38;37.30;;;7.60;88.00;;;;;;5011565;28;20053;-77
2021/12/18 00:19:27;;;;;;;56.60;38.33;;;7.50;87.80;;;;;;5009328;28;20038;-75
2021/12/18 00:21:54;;;;;;;54.90;38.05;;;7.50;87.60;;;;;;5006865;28;20077;-75
2021/12/18 00:24:21;;;;;;;56.50;38.60;;;7.50;87.60;;;;;;5008636;28;20030;-76
2021/12/18 00:26:47;;;;;;;54.28;36.97;;;7.50;87.60;;;;;;5013827;28;20113;-76
2021/12/18 00:29:13;;;;;;;52.05;35.25;;;7.50;87.50;;;;;;5014263;28;20045;-72
2021/12/18 00:31:39;;;;;;;57.42;38.17;;;7.50;87.50;;;;;;5013719;28;20098;-76
2021/12/18 00:34:05;;;;;;;54.60;37.25;;;7.50;87.50;;;;;;5013984;28;20022;-76
2021/12/18 00:36:31;;;;;;;53.40;36.97;;;7.40;87.70;;;;;;5010361;28;20054;-76
2021/12/18 00:38:58;;;;;;;57.40;38.03;;;7.50;87.70;;;;;;5009483;28;20034;-76
2021/12/18 00:41:47;;;;;;;57.58;39.60;;;7.40;87.90;;;;;;5024882;28;20018;-74
2021/12/18 00:44:13;;;;;;;56.55;38.50;;;7.40;87.80;;;;;;5016309;28;20026;-76
2021/12/18 00:46:43;;;;;;;54.83;38.60;;;7.40;87.80;;;;;;5024036;28;20041;-73
2021/12/18 00:49:11;;;;;;;55.05;37.22;;;7.40;87.80;;;;;;5013188;28;20089;-75
2021/12/18 00:51:37;;;;;;;57.33;38.05;;;7.40;87.90;;;;;;5010769;28;20037;-74
2021/12/18 00:54:03;;;;;;;62.17;40.85;;;7.40;88.00;;;;;;5024567;28;20110;-76
2021/12/18 00:56:29;;;;;;;58.90;39.65;;;7.40;88.10;;;;;;5017664;28;20053;-75
2021/12/18 00:58:55;;;;;;;58.72;40.85;;;7.30;88.10;;;;;;5010846;28;20038;-75
2021/12/18 01:01:23;;;;;;;58.38;40.28;;;7.30;88.20;;;;;;5014825;28;20045;-76
2021/12/18 01:03:51;;;;;;;58.70;39.97;;;7.30;88.30;;;;;;5019258;28;20142;-76
2021/12/18 01:06:19;;;;;;;56.20;39.95;;;7.30;88.30;;;;;;5008621;28;20240;-75
2021/12/18 01:08:46;;;;;;;58.33;39.85;;;7.30;88.20;;;;;;5009117;28;20078;-75
2021/12/18 01:13:58;;;;;;;60.50;40.92;;;7.20;88.30;;;;;;5007139;28;20026;-76
2021/12/18 01:16:26;;;;;;;61.42;39.83;;;7.20;88.50;;;;;;5020076;28;20022;-76
2021/12/18 01:24:21;;;;;;;55.58;36.45;;;7.40;88.70;;;;;;5017813;28;20277;-76
2021/12/18 01:26:46;;;;;;;58.63;39.80;;;7.40;88.70;;;;;;5016295;28;20022;-77
2021/12/18 01:29:12;;;;;;;53.22;35.72;;;7.50;88.70;;;;;;5013530;28;20034;-75
2021/12/18 01:31:38;;;;;;;52.70;34.97;;;7.50;88.70;;;;;;5012020;28;20102;-75
2021/12/18 01:34:03;;;;;;;51.13;34.58;;;7.50;88.70;;;;;;5012805;28;20035;-76
2021/12/18 01:36:29;;;;;;;52.17;35.80;;;7.60;88.70;;;;;;5014443;28;20519;-76
2021/12/18 01:38:56;;;;;;;51.42;33.78;;;7.60;88.70;;;;;;5014786;28;20034;-77
2021/12/18 01:41:22;;;;;;;55.03;35.63;;;7.60;88.80;;;;;;5025373;28;20062;-72
2021/12/18 01:46:47;;;;;;;49.42;33.53;;;7.60;88.80;;;;;;5009801;28;20053;-75
2021/12/18 01:54:29;;;;;;;53.92;35.80;;;7.60;89.00;;;;;;5011633;28;20042;-75
2021/12/18 01:56:54;;;;;;;55.45;38.40;;;7.60;89.00;;;;;;5015530;28;20049;-75
2021/12/18 01:59:43;;;;;;;56.15;39.13;;;7.70;88.90;;;;;;5015999;28;20026;-76
2021/12/18 02:02:10;;;;;;;54.60;36.40;;;7.70;88.80;;;;;;5005445;28;20065;-77
2021/12/18 02:04:35;;;;;;;57.90;37.60;;;7.70;88.70;;;;;;5009946;28;20079;-76
2021/12/18 02:07:04;;;;;;;54.67;37.95;;;7.70;88.60;;;;;;5012088;28;20022;-76
2021/12/18 02:09:52;;;;;;;56.20;38.00;;;7.70;88.60;;;;;;5010686;28;20026;-75
2021/12/18 02:12:20;;;;;;;57.22;38.28;;;7.60;88.80;;;;;;5014201;28;20022;-76
2021/12/18 02:22:47;;;;;;;58.13;36.75;;;7.60;88.70;;;;;;5026467;28;19901;-76
2021/12/18 02:25:13;;;;;;;53.42;34.85;;;7.60;88.90;;;;;;5027537;28;20029;-76
2021/12/18 02:27:39;;;;;;;53.40;35.28;;;7.60;88.90;;;;;;5010433;28;20037;-76
2021/12/18 02:30:06;;;;;;;58.17;36.22;;;7.60;88.70;;;;;;5011681;28;20027;-74
2021/12/18 02:32:31;;;;;;;52.55;34.85;;;7.60;88.70;;;;;;5011686;28;20294;-74
2021/12/18 02:35:03;;;;;;;48.05;33.40;;;7.70;88.70;;;;;;5013743;28;20276;-75
2021/12/18 02:37:29;;;;;;;54.88;35.33;;;7.70;88.80;;;;;;5012189;28;20077;-76
2021/12/18 02:40:48;;;;;;;48.58;32.25;;;7.70;88.80;;;;;;5012084;28;20033;-76
2021/12/18 02:42:41;;;;;;;48.90;32.13;;;7.60;88.90;;;;;;5016035;28;20033;-77
2021/12/18 02:45:07;;;;;;;50.88;34.20;;;7.70;89.00;;;;;;5014485;28;20037;-75
2021/12/18 02:47:34;;;;;;;48.72;33.17;;;7.70;89.10;;;;;;5022865;28;20034;-76
2021/12/18 02:49:59;;;;;;;53.97;33.95;;;7.70;89.20;;;;;;5015216;28;20053;-76
2021/12/18 02:52:30;;;;;;;48.33;31.17;;;7.70;89.50;;;;;;5010994;28;20018;-76
2021/12/18 02:54:56;;;;;;;50.53;33.90;;;7.70;89.60;;;;;;5011771;28;20023;-75
2021/12/18 02:57:22;;;;;;;49.75;32.75;;;7.70;89.70;;;;;;5010773;28;20035;-76
2021/12/18 02:59:50;;;;;;;50.50;31.25;;;7.70;89.70;;;;;;5016166;28;20064;-76
2021/12/18 03:02:18;;;;;;;49.78;32.60;;;7.70;89.90;;;;;;5018299;28;20080;-74
2021/12/18 03:04:48;;;;;;;48.90;31.70;;;7.70;90.00;;;;;;5016821;28;20034;-76
2021/12/18 03:07:16;;;;;;;49.22;32.08;;;7.70;90.20;;;;;;5021423;28;20060;-75
2021/12/18 03:19:06;;;;;;;47.65;30.23;;;7.70;90.30;;;;;;5011642;28;20023;-77
2021/12/18 03:21:54;;;;;;;48.85;31.08;;;7.80;90.80;;;;;;5019782;28;20076;-75
2021/12/18 03:23:57;;;;;;;52.72;31.77;;;7.80;90.70;;;;;;5010070;28;20053;-76
2021/12/18 03:26:23;;;;;;;55.47;31.98;;;7.80;90.90;;;;;;5019688;28;20045;-77
2021/12/18 03:28:49;;;;;;;54.10;32.08;;;7.80;91.00;;;;;;5015210;28;20057;-76
2021/12/18 03:31:15;;;;;;;52.33;32.55;;;7.80;91.00;;;;;;5015610;28;20023;-76
2021/12/18 03:33:40;;;;;;;54.10;31.25;;;7.80;91.10;;;;;;5019355;28;20021;-73
2021/12/18 03:36:07;;;;;;;54.15;32.78;;;7.80;91.00;;;;;;5016725;28;20069;-74
2021/12/18 03:38:33;;;;;;;55.58;33.35;;;7.80;91.00;;;;;;5010514;28;20035;-76
2021/12/18 03:40:59;;;;;;;58.45;33.30;;;7.80;91.10;;;;;;5014178;28;20026;-76
2021/12/18 03:43:25;;;;;;;61.00;34.55;;;7.80;91.20;;;;;;5013558;28;20036;-77
2021/12/18 03:45:50;;;;;;;52.08;33.25;;;7.80;91.20;;;;;;5017539;28;20052;-76
2021/12/18 03:48:16;;;;;;;54.95;32.78;;;7.80;91.30;;;;;;5029531;28;20018;-74
2021/12/18 03:50:45;;;;;;;55.50;33.55;;;7.80;91.30;;;;;;5017257;28;20090;-75
2021/12/18 03:53:11;;;;;;;54.55;33.58;;;7.80;91.30;;;;;;5008381;28;20162;-76
2021/12/18 03:55:37;;;;;;;55.72;34.05;;;7.80;91.40;;;;;;5012544;28;20038;-73
2021/12/18 03:58:02;;;;;;;55.88;33.58;;;7.80;91.40;;;;;;5014141;28;20048;-76
2021/12/18 04:00:28;;;;;;;53.08;33.47;;;7.80;91.40;;;;;;5020635;28;20101;-77
2021/12/18 04:02:54;;;;;;;56.78;33.80;;;7.80;91.50;;;;;;5003171;28;20042;-77
2021/12/18 04:05:19;;;;;;;56.15;33.63;;;7.80;91.60;;;;;;5010332;28;20137;-76
2021/12/18 04:07:49;;;;;;;61.85;35.38;;;7.80;91.60;;;;;;5008787;28;20038;-76
2021/12/18 04:10:17;;;;;;;53.03;31.58;;;7.80;91.60;;;;;;5015284;28;20046;-75
2021/12/18 04:12:43;;;;;;;55.78;32.55;;;7.80;91.50;;;;;;5019145;28;20026;-76
2021/12/18 04:15:09;;;;;;;50.33;31.17;;;7.80;91.40;;;;;;5020307;28;20114;-76
2021/12/18 04:17:34;;;;;;;54.95;33.08;;;7.80;91.40;;;;;;5019272;28;20066;-72
2021/12/18 04:20:00;;;;;;;53.47;32.03;;;7.80;91.40;;;;;;5020124;28;20128;-76
2021/12/18 04:22:26;;;;;;;53.42;33.28;;;7.80;91.40;;;;;;5012376;28;20069;-75
2021/12/18 04:24:51;;;;;;;53.85;33.53;;;7.80;91.40;;;;;;5014968;28;20033;-76
2021/12/18 04:27:17;;;;;;;55.67;34.08;;;7.80;91.40;;;;;;5016839;28;20026;-76
2021/12/18 04:29:43;;;;;;;57.97;33.88;;;7.80;91.20;;;;;;5013019;28;20280;-76
2021/12/18 04:32:08;;;;;;;59.05;33.70;;;7.80;91.20;;;;;;5006690;28;20022;-76
2021/12/18 04:34:34;;;;;;;59.22;34.15;;;7.80;91.30;;;;;;5011724;28;20034;-73
2021/12/18 04:36:59;;;;;;;55.63;33.85;;;7.80;91.40;;;;;;5006998;28;20093;-76
2021/12/18 04:39:25;;;;;;;56.88;34.00;;;7.80;91.40;;;;;;5005224;28;20046;-76
2021/12/18 04:41:57;;;;;;;56.28;32.83;;;7.80;91.40;;;;;;5007341;28;20053;-77
2021/12/18 04:44:24;;;;;;;52.25;30.45;;;7.80;91.50;;;;;;5013977;28;20026;-76
2021/12/18 04:46:50;;;;;;;52.60;31.80;;;7.80;91.40;;;;;;5004710;28;20034;-77
2021/12/18 04:49:15;;;;;;;55.83;33.70;;;7.80;91.40;;;;;;5006230;28;20035;-77
2021/12/18 04:51:41;;;;;;;55.97;33.97;;;7.80;91.20;;;;;;5005288;28;20050;-74
2021/12/18 04:54:07;;;;;;;53.95;33.22;;;7.80;91.10;;;;;;5012167;28;20018;-76
2021/12/18 04:56:33;;;;;;;57.92;35.25;;;7.80;91.20;;;;;;5029119;28;20038;-77
2021/12/18 04:58:58;;;;;;;56.85;33.47;;;7.80;91.20;;;;;;5020655;28;20030;-77
2021/12/18 05:01:24;;;;;;;58.75;34.72;;;7.80;91.30;;;;;;5013378;28;20045;-75
2021/12/18 05:03:50;;;;;;;53.67;32.50;;;7.80;91.30;;;;;;5018264;28;20049;-76
2021/12/18 05:06:16;;;;;;;57.78;33.35;;;7.80;91.30;;;;;;5013195;28;20026;-76
2021/12/18 05:08:42;;;;;;;55.97;33.30;;;7.80;91.20;;;;;;5016599;28;20030;-73
2021/12/18 05:11:07;;;;;;;59.35;35.55;;;7.70;91.30;;;;;;5015487;28;20026;-74
2021/12/18 05:13:33;;;;;;;57.63;34.17;;;7.70;91.30;;;;;;5014568;28;20053;-75
2021/12/18 05:15:59;;;;;;;58.05;34.40;;;7.80;91.30;;;;;;5019569;28;20022;-75
2021/12/18 05:18:24;;;;;;;56.03;32.90;;;7.70;91.20;;;;;;5019097;28;20032;-75
2021/12/18 05:20:50;;;;;;;56.97;33.55;;;7.70;91.30;;;;;;5017653;28;20073;-76
2021/12/18 05:23:16;;;;;;;59.70;34.70;;;7.80;91.20;;;;;;5024690;28;20038;-74
2021/12/18 05:25:41;;;;;;;55.08;32.30;;;7.80;91.30;;;;;;5024678;28;20042;-74
2021/12/18 05:28:07;;;;;;;58.65;35.00;;;7.80;91.40;;;;;;5021040;28;20026;-75
2021/12/18 05:30:33;;;;;;;59.97;34.55;;;7.70;91.30;;;;;;5015228;28;20033;-77
2021/12/18 05:32:59;;;;;;;60.22;34.92;;;7.70;91.50;;;;;;5016037;28;20086;-75
2021/12/18 05:35:24;;;;;;;61.47;35.88;;;7.80;91.40;;;;;;5021478;28;20030;-76
2021/12/18 05:37:53;;;;;;;57.80;34.03;;;7.70;91.30;;;;;;5040145;28;20029;-76
2021/12/18 05:40:25;;;;;;;63.95;37.13;;;7.70;91.40;;;;;;5018116;28;20037;-76
2021/12/18 05:42:52;;;;;;;69.30;37.90;;;7.70;91.30;;;;;;5026399;28;20034;-76
2021/12/18 05:45:19;;;;;;;60.85;36.17;;;7.70;91.30;;;;;;5027106;28;20029;-75
2021/12/18 05:47:46;;;;;;;61.53;35.17;;;7.70;91.20;;;;;;5023571;28;20036;-75
2021/12/18 05:50:14;;;;;;;60.42;33.53;;;7.70;91.10;;;;;;5018982;28;20022;-74
2021/12/18 05:52:41;;;;;;;58.88;34.30;;;7.70;91.10;;;;;;5016612;28;20027;-76
2021/12/18 05:55:08;;;;;;;57.28;34.42;;;7.70;91.10;;;;;;5014643;28;20028;-77
2021/12/18 05:57:34;;;;;;;62.08;35.03;;;7.70;91.10;;;;;;5019557;28;20062;-77
2021/12/18 05:59:59;;;;;;;59.40;33.40;;;7.70;91.10;;;;;;5022540;28;20037;-76
2021/12/18 06:02:25;;;;;;;60.63;34.63;;;7.70;91.10;;;;;;5021467;28;20081;-76
2021/12/18 06:04:51;;;;;;;62.45;35.50;;;7.70;91.20;;;;;;5023467;28;20045;-77
2021/12/18 06:07:32;;;;;;;61.42;33.92;;;7.80;91.20;;;;;;5017871;28;20022;-77
2021/12/18 06:09:59;;;;;;;58.08;35.15;;;7.80;91.10;;;;;;5020389;28;20049;-77
2021/12/18 06:12:25;;;;;;;58.95;32.95;;;7.80;91.00;;;;;;5012244;28;20071;-72
2021/12/18 06:14:51;;;;;;;57.58;34.85;;;7.70;91.10;;;;;;5027569;28;20121;-76
2021/12/18 06:17:17;;;;;;;60.80;34.33;;;7.80;91.00;;;;;;5013652;28;20109;-76
2021/12/18 06:19:43;;;;;;;62.65;36.03;;;7.80;91.10;;;;;;5017673;28;20027;-76
2021/12/18 06:22:08;;;;;;;63.60;35.67;;;7.70;91.10;;;;;;5012953;28;20092;-76
2021/12/18 06:24:34;;;;;;;62.00;35.55;;;7.70;91.20;;;;;;5034285;28;20109;-75
2021/12/18 06:27:00;;;;;;;59.80;36.35;;;7.80;91.20;;;;;;5018327;28;20052;-75
2021/12/18 06:29:25;;;;;;;61.90;35.40;;;7.80;91.10;;;;;;5036964;28;20034;-75
2021/12/18 06:31:51;;;;;;;61.05;35.72;;;7.70;91.10;;;;;;5016547;28;20018;-76
2021/12/18 06:34:17;;;;;;;62.85;36.25;;;7.70;91.20;;;;;;5011992;28;20018;-76
2021/12/18 06:36:43;;;;;;;60.70;35.10;;;7.80;91.20;;;;;;5011371;28;20023;-75
2021/12/18 06:39:09;;;;;;;56.25;32.72;;;7.70;91.10;;;;;;5019959;28;20041;-76
2021/12/18 06:41:35;;;;;;;59.60;34.40;;;7.70;91.20;;;;;;5023808;28;20019;-73
2021/12/18 06:44:01;;;;;;;65.30;35.35;;;7.70;91.20;;;;;;5022653;28;20049;-76
2021/12/18 06:46:27;;;;;;;63.40;35.20;;;7.70;91.10;;;;;;5018803;28;20022;-74
2021/12/18 06:48:53;;;;;;;58.47;32.55;;;7.70;91.20;;;;;;5029309;28;20049;-75
2021/12/18 06:51:20;;;;;;;63.13;35.42;;;7.70;91.30;;;;;;5035891;28;20109;-75
2021/12/18 06:53:46;;;;;;;61.95;33.60;;;7.70;91.30;;;;;;5028354;28;20018;-74
2021/12/18 06:56:11;;;;;;;62.95;34.45;;;7.70;91.30;;;;;;5026739;28;20034;-74
2021/12/18 06:58:37;;;;;;;67.15;35.17;;;7.70;91.30;;;;;;5017710;28;20054;-75
2021/12/18 07:01:03;;;;;;;57.95;30.83;;;7.70;91.40;;;;;;5022328;28;20057;-75
2021/12/18 07:03:29;;;;;;;60.47;33.65;;;7.70;91.40;;;;;;5011480;28;20030;-75
2021/12/18 07:05:55;;;;;;;60.65;32.47;;;7.70;91.50;;;;;;5024123;28;20050;-72
2021/12/18 07:08:21;;;;;;;57.00;30.70;;;7.70;91.50;;;;;;5021250;28;20042;-75
2021/12/18 07:10:47;;;;;;;54.88;29.55;;;7.60;91.70;;;;;;5016749;28;20029;-74
2021/12/18 07:13:12;;;;;;;53.22;28.35;;;7.70;91.90;;;;;;5017321;28;20034;-76
2021/12/18 07:15:38;;;;;;;56.45;31.50;;;7.70;91.80;;;;;;5011427;28;20038;-75
2021/12/18 07:18:04;;;;;;;56.70;29.23;;;7.70;91.80;;;;;;5035328;28;20043;-74
2021/12/18 07:20:31;;;;;;;57.50;29.00;;;7.70;91.80;;;;;;5029137;28;20060;-73
2021/12/18 07:22:57;;;;;;;60.10;30.77;;;7.60;92.00;;;;;;5016799;28;20031;-74
2021/12/18 07:25:22;;;;;;;57.40;28.73;;;7.60;92.20;;;;;;5015843;28;20034;-75
2021/12/18 07:27:48;;;;;;;58.80;32.22;;;7.60;92.40;;;;;;5025876;28;20211;-76
2021/12/18 07:30:15;;;;;;;62.05;31.95;;;7.60;92.30;;;;;;5017912;28;20036;-75
2021/12/18 07:32:41;;;;;;;59.47;30.80;;;7.60;92.40;;;;;;5012641;28;20018;-75
2021/12/18 07:35:08;;;;;;;62.25;31.92;;;7.60;92.40;;;;;;5022790;28;20034;-75
2021/12/18 07:37:33;;;;;;;61.17;30.67;;;7.60;92.30;;;;;;5016779;28;20128;-75
2021/12/18 07:39:59;;;;;;;59.95;31.35;;;7.60;92.40;;;;;;5028872;28;20021;-75
2021/12/18 07:42:25;;;;;;;61.08;33.05;;;7.70;92.50;;;;;;5025156;28;20033;-75
2021/12/18 07:44:51;;;;;;;69.60;33.75;;;7.60;92.40;;;;;;5011513;28;20027;-75
2021/12/18 07:47:17;;;;;;;72.35;33.97;;;7.60;92.50;;;;;;5039982;28;20065;-75
2021/12/18 07:49:44;;;;;;;68.65;34.17;;;7.60;92.50;;;;;;5012876;28;20090;-75
2021/12/18 07:52:10;;;;;;;72.35;35.10;;;7.60;92.50;;;;;;5016442;28;20085;-75
2021/12/18 07:54:36;;;;;;;70.88;34.17;;;7.60;92.60;;;;;;5020292;28;20099;-75
2021/12/18 07:57:01;;;;;;;73.47;35.72;;;7.60;92.70;;;;;;5009928;28;20018;-75
2021/12/18 07:59:27;;;;;;;76.82;36.90;;;7.60;92.80;;;;;;5011827;28;20038;-74
2021/12/18 08:01:53;;;;;;;70.15;33.35;;;7.60;92.80;;;;;;5026983;28;20031;-76
2021/12/18 08:04:18;;;;;;;73.20;35.75;;;7.60;92.80;;;;;;5001531;28;20035;-76
2021/12/18 08:06:44;;;;;;;70.35;34.00;;;7.60;92.80;;;;;;5003742;28;20037;-76
2021/12/18 08:09:09;;;;;;;64.45;31.88;;;7.60;92.80;;;;;;5003399;28;20037;-75
2021/12/18 08:11:35;;;;;;;70.40;33.92;;;7.60;92.70;;;;;;5001733;28;20073;-74
2021/12/18 08:14:01;;;;;;;72.60;34.90;;;7.60;92.70;;;;;;5000756;28;20038;-73
2021/12/18 08:16:26;;;;;;;76.55;36.25;;;7.60;92.70;;;;;;5008072;28;20034;-75
2021/12/18 08:18:52;;;;;;;70.97;34.22;;;7.70;92.70;;;;;;5004533;28;20031;-77
2021/12/18 08:21:17;;;;;;;79.50;34.00;;;7.70;92.70;;;;;;5009728;28;20022;-74
2021/12/18 08:23:43;;;;;;;73.10;33.05;;;7.60;92.80;;;;;;5008353;28;20030;-76
2021/12/18 08:26:09;;;;;;;67.20;32.08;;;7.60;93.00;;;;;;5003999;28;20018;-75
2021/12/18 08:28:34;;;;;;;71.68;33.05;;;7.60;93.10;;;;;;5010864;28;20188;-75
2021/12/18 08:31:00;;;;;;;77.25;32.63;;;7.60;93.00;;;;;;5008008;28;20026;-74
2021/12/18 08:33:26;;;;;;;69.70;34.40;;;7.60;93.00;;;;;;5010371;28;20045;-75
2021/12/18 08:35:51;;;;;;;70.88;31.67;;;7.60;93.00;;;;;;5009114;28;20052;-76
2021/12/18 08:38:17;;;;;;;71.43;29.95;;;7.60;93.10;;;;;;5010865;28;20034;-75
2021/12/18 08:40:44;;;;;;;73.93;33.13;;;7.60;93.10;;;;;;5007558;28;20018;-76
2021/12/18 08:43:09;;;;;;;74.25;32.33;;;7.60;93.10;;;;;;5006237;28;20019;-76
2021/12/18 08:45:36;;;;;;;78.22;33.35;;;7.60;93.10;;;;;;5013196;28;20038;-74
2021/12/18 08:48:01;;;;;;;76.57;34.72;;;7.60;93.30;;;;;;5006532;28;20019;-75
2021/12/18 08:50:27;;;;;;;80.78;33.72;;;7.60;93.30;;;;;;5017551;28;20019;-77
2021/12/18 08:52:53;;;;;;;79.95;34.92;;;7.50;93.50;;;;;;5016389;28;20042;-76
2021/12/18 08:55:20;;;;;;;78.70;33.58;;;7.40;93.60;;;;;;5009660;28;20023;-76
2021/12/18 08:57:46;;;;;;;72.00;29.30;;;7.50;93.80;;;;;;5004570;28;20037;-75
2021/12/18 09:00:16;;;;;;;78.03;30.77;;;7.40;93.90;;;;;;5008427;28;20045;-75
2021/12/18 09:02:42;;;;;;;78.22;33.05;;;7.50;94.00;;;;;;5010686;28;20030;-75
2021/12/18 09:05:09;;;;;;;75.88;30.90;;;7.60;94.00;;;;;;5007228;28;20018;-74
2021/12/18 09:07:35;;;;;;;65.13;27.98;;;7.60;93.90;;;;;;5008942;28;20023;-74
2021/12/18 09:10:01;;;;;;;71.68;28.45;;;7.60;93.90;;;;;;5007140;28;20018;-75
2021/12/18 09:12:26;;;;;;;71.32;30.42;;;7.50;93.80;;;;;;5010916;28;20087;-75
2021/12/18 09:14:52;;;;;;;71.80;29.88;;;7.50;93.80;;;;;;5009735;28;20361;-73
2021/12/18 09:17:18;;;;;;;73.35;29.80;;;7.60;93.80;;;;;;5009898;28;20097;-71
2021/12/18 09:19:44;;;;;;;70.78;29.67;;;7.60;93.80;;;;;;5009999;28;20030;-73
2021/12/18 09:22:10;;;;;;;63.97;27.13;;;7.60;93.70;;;;;;5005696;28;20029;-73
2021/12/18 09:24:37;;;;;;;62.35;26.60;;;7.60;93.80;;;;;;5020797;28;20030;-73
2021/12/18 09:27:04;;;;;;;67.95;26.50;;;7.60;93.80;;;;;;5010252;28;20086;-73
2021/12/18 09:29:30;;;;;;;61.75;25.98;;;7.70;93.80;;;;;;5008804;28;20137;-72
2021/12/18 09:31:56;;;;;;;59.67;25.88;;;7.70;93.80;;;;;;5009064;28;20026;-73
2021/12/18 09:34:21;;;;;;;63.50;26.35;;;7.80;93.70;;;;;;5016773;28;20155;-73
2021/12/18 09:36:47;;;;;;;58.10;23.63;;;7.80;93.50;;;;;;5012970;28;20038;-74
2021/12/18 09:39:14;;;;;;;57.85;24.45;;;7.80;93.50;;;;;;5011612;28;20092;-75
2021/12/18 09:41:40;;;;;;;55.65;24.55;;;7.80;93.50;;;;;;5008536;28;20034;-74
2021/12/18 09:44:06;;;;;;;56.92;25.30;;;7.90;93.40;;;;;;5011990;28;20053;-73
2021/12/18 09:46:32;;;;;;;54.65;24.30;;;7.90;93.40;;;;;;5006644;28;20026;-73
2021/12/18 09:48:58;;;;;;;61.78;24.85;;;7.80;93.20;;;;;;5006199;28;20057;-73
2021/12/18 09:51:27;;;;;;;55.63;24.85;;;7.90;93.30;;;;;;5009879;28;20026;-75
2021/12/18 09:53:56;;;;;;;57.30;23.58;;;7.80;93.30;;;;;;5007997;28;20045;-74
2021/12/18 09:56:23;;;;;;;58.38;24.25;;;7.70;93.30;;;;;;5006868;28;20029;-75
2021/12/18 09:58:49;;;;;;;59.00;23.52;;;7.80;93.30;;;;;;5006437;28;20096;-75
2021/12/18 10:01:14;;;;;;;62.20;25.33;;;7.80;93.30;;;;;;5017321;28;20035;-73
2021/12/18 10:03:49;;;;;;;60.08;23.85;;;7.80;93.40;;;;;;5010055;28;20038;-73
2021/12/18 10:06:36;;;;;;;55.80;23.17;;;7.70;93.30;;;;;;5003128;28;20075;-74
2021/12/18 10:09:06;;;;;;;54.55;21.92;;;7.70;93.50;;;;;;5007892;28;20031;-74
2021/12/18 10:11:32;;;;;;;52.92;23.25;;;7.70;93.50;;;;;;5009675;28;20038;-73
2021/12/18 10:14:03;;;;;;;55.65;22.10;;;7.80;93.60;;;;;;5010935;28;20058;-71
2021/12/18 10:16:30;;;;;;;46.33;19.10;;;7.70;93.60;;;;;;4996488;28;20034;-74
2021/12/18 10:18:57;;;;;;;43.30;20.02;;;7.70;93.60;;;;;;5021629;28;20062;-69
2021/12/18 10:21:29;;;;;;;44.45;18.27;;;7.70;93.50;;;;;;5000654;28;20022;-73
2021/12/18 10:23:57;;;;;;;37.92;16.35;;;7.80;93.50;;;;;;5010205;28;20033;-72
2021/12/18 10:26:38;;;;;;;37.28;17.40;;;7.80;93.50;;;;;;5004952;28;20019;-74
2021/12/18 10:29:22;;;;;;;39.63;16.85;;;7.90;93.40;;;;;;5006982;28;20018;-74
2021/12/18 10:31:49;;;;;;;38.28;17.20;;;7.80;93.20;;;;;;5003967;28;20035;-73
2021/12/18 10:34:23;;;;;;;39.85;16.50;;;7.90;93.20;;;;;;5019548;28;20037;-74
2021/12/18 10:37:07;;;;;;;39.08;17.05;;;7.90;93.20;;;;;;5011078;28;20037;-74
2021/12/18 10:39:34;;;;;;;35.17;16.20;;;7.90;93.20;;;;;;5012839;28;20047;-71
2021/12/18 10:42:22;;;;;;;30.20;15.45;;;8.00;93.10;;;;;;5016416;28;20022;-73
2021/12/18 10:45:12;;;;;;;28.38;14.27;;;8.10;93.00;;;;;;5012731;28;20141;-74
2021/12/18 10:48:00;;;;;;;30.17;14.95;;;7.90;92.60;;;;;;5011888;28;20154;-76
2021/12/18 10:50:32;;;;;;;32.17;14.32;;;8.00;92.60;;;;;;5005124;28;20034;-76
2021/12/18 10:53:14;;;;;;;33.47;15.77;;;8.00;92.60;;;;;;5019891;28;20350;-75
2021/12/18 10:55:51;;;;;;;36.65;16.65;;;8.10;92.60;;;;;;5020595;28;20092;-74
2021/12/18 10:58:30;;;;;;;29.80;14.48;;;8.10;92.40;;;;;;5017879;28;20037;-73
2021/12/18 11:00:59;;;;;;;37.10;16.30;;;8.10;92.40;;;;;;5011663;28;20049;-73
2021/12/18 11:03:36;;;;;;;29.77;14.45;;;8.10;92.30;;;;;;5010479;28;20023;-74
2021/12/18 11:06:07;;;;;;;29.73;15.38;;;8.10;92.40;;;;;;5018108;28;20030;-74
2021/12/18 11:08:52;;;;;;;29.33;14.93;;;8.10;92.00;;;;;;5003928;28;20049;-71
2021/12/18 11:14:22;;;;;;;29.45;14.68;;;8.10;92.10;;;;;;5008030;28;20053;-73
2021/12/18 11:16:51;;;;;;;29.52;13.93;;;8.10;91.90;;;;;;5008607;28;20052;-73
2021/12/18 11:19:20;;;;;;;30.50;14.68;;;8.00;92.10;;;;;;5006992;28;20042;-72
2021/12/18 11:21:54;;;;;;;35.20;16.83;;;8.10;92.30;;;;;;5012407;28;20099;-73
2021/12/18 11:24:26;;;;;;;34.45;16.83;;;8.10;92.30;;;;;;5000520;28;20026;-74
2021/12/18 11:27:04;;;;;;;33.00;17.40;;;8.10;92.30;;;;;;5004714;28;20033;-75
2021/12/18 11:29:39;;;;;;;32.08;15.77;;;8.10;92.30;;;;;;5009747;28;20049;-74
2021/12/18 11:32:06;;;;;;;35.92;17.50;;;8.20;92.20;;;;;;5003499;28;20061;-75
2021/12/18 11:34:32;;;;;;;33.13;16.65;;;8.20;92.20;;;;;;5002463;28;20030;-74
2021/12/18 11:36:59;;;;;;;32.05;15.88;;;8.30;92.30;;;;;;5009226;28;20022;-75
2021/12/18 11:39:29;;;;;;;40.05;16.55;;;8.30;92.30;;;;;;5009060;28;20431;-73
2021/12/18 11:41:56;;;;;;;38.20;16.70;;;8.30;92.10;;;;;;5007602;28;20038;-75
2021/12/18 11:44:35;;;;;;;39.72;18.55;;;8.40;92.10;;;;;;5006765;28;20029;-73
2021/12/18 11:47:24;;;;;;;36.20;18.73;;;8.40;92.10;;;;;;5009267;28;20022;-73
2021/12/18 11:49:51;;;;;;;38.38;18.95;;;8.40;92.00;;;;;;5004242;28;20156;-74
2021/12/18 11:52:16;;;;;;;38.33;18.98;;;8.40;92.10;;;;;;5005018;28;20022;-73
2021/12/18 11:54:50;;;;;;;35.25;17.88;;;8.40;92.10;;;;;;5019461;28;20024;-75
2021/12/18 11:58:01;;;;;;;36.55;17.55;;;8.40;92.10;;;;;;5004536;28;20038;-74
2021/12/18 12:00:38;;;;;;;32.53;16.50;;;8.40;92.20;;;;;;5000878;28;20061;-73
2021/12/18 12:03:08;;;;;;;33.13;16.75;;;8.50;92.20;;;;;;5004127;28;20023;-75
2021/12/18 12:05:43;;;;;;;30.00;16.50;;;8.60;92.10;;;;;;5005914;28;20053;-74
2021/12/18 12:08:43;;;;;;;33.38;17.02;;;8.60;91.90;;;;;;5018634;28;20022;-74
2021/12/18 12:11:24;;;;;;;31.38;15.90;;;8.60;91.90;;;;;;5000418;28;20026;-73
2021/12/18 12:13:56;;;;;;;27.13;14.77;;;8.60;91.70;;;;;;5007053;28;20054;-73
2021/12/18 12:16:59;;;;;;;26.00;14.30;;;8.60;91.50;;;;;;5009328;28;20026;-73
2021/12/18 12:19:37;;;;;;;29.40;14.82;;;8.60;91.40;;;;;;5037938;28;20033;-73
2021/12/18 12:22:07;;;;;;;27.73;14.32;;;8.60;91.30;;;;;;5025366;28;20061;-73
2021/12/18 12:24:55;;;;;;;28.33;14.88;;;8.50;91.50;;;;;;4997816;28;20026;-73
2021/12/18 12:27:29;;;;;;;31.05;15.40;;;8.60;91.60;;;;;;5016685;28;20252;-71
2021/12/18 12:29:56;;;;;;;26.85;14.85;;;8.60;91.80;;;;;;5015911;28;20113;-72
2021/12/18 12:32:21;;;;;;;34.33;18.30;;;8.70;91.80;;;;;;5008750;28;20086;-72
2021/12/18 12:35:13;;;;;;;33.00;16.45;;;8.70;91.70;;;;;;5007390;28;20027;-74
2021/12/18 12:37:46;;;;;;;31.27;15.85;;;8.70;91.60;;;;;;5001323;28;20035;-73
2021/12/18 12:40:15;;;;;;;32.45;17.48;;;8.70;91.70;;;;;;5004866;28;20014;-73
2021/12/18 12:43:13;;;;;;;30.48;15.40;;;8.70;91.70;;;;;;5004394;28;20078;-70
2021/12/18 12:45:41;;;;;;;33.17;15.73;;;8.80;91.70;;;;;;5006429;28;20050;-74
2021/12/18 12:48:07;;;;;;;31.73;14.95;;;8.70;91.50;;;;;;5003541;28;20029;-74
2021/12/18 12:50:33;;;;;;;32.33;17.23;;;8.70;91.60;;;;;;5005487;28;20031;-72
2021/12/18 12:53:01;;;;;;;32.75;16.60;;;8.80;91.70;;;;;;5003475;28;20103;-73
2021/12/18 12:55:44;;;;;;;36.72;17.40;;;8.70;91.70;;;;;;5004121;28;20038;-71
2021/12/18 12:58:18;;;;;;;33.25;17.00;;;8.80;91.70;;;;;;5006446;28;20034;-69
2021/12/18 13:00:46;;;;;;;27.85;13.90;;;8.70;91.40;;;;;;5006688;28;20081;-73
2021/12/18 13:03:18;;;;;;;30.80;15.73;;;8.70;91.60;;;;;;5007288;28;20037;-76
2021/12/18 13:05:55;;;;;;;30.45;15.52;;;8.70;91.80;;;;;;5021564;28;20029;-74
2021/12/18 13:08:22;;;;;;;31.73;16.10;;;8.80;91.90;;;;;;5007018;28;20042;-74
2021/12/18 13:10:51;;;;;;;30.52;16.15;;;8.70;91.70;;;;;;5005681;28;20074;-72
2021/12/18 13:13:19;;;;;;;32.55;16.27;;;8.70;91.80;;;;;;5012095;28;20030;-74
2021/12/18 13:15:54;;;;;;;36.88;17.40;;;8.70;92.00;;;;;;5015053;28;20039;-69
2021/12/18 13:18:32;;;;;;;40.13;18.02;;;8.60;92.00;;;;;;5013294;28;20088;-73
2021/12/18 13:20:57;;;;;;;39.25;19.75;;;8.60;92.20;;;;;;5006434;28;20083;-75